createdAt,value
2019-01-06T00:00:11.065Z,100513.81
2019-01-06T00:02:44.300Z,100515.13
2019-01-06T00:05:17.445Z,100517.82
2019-01-06T00:07:51.057Z,100508.95
2019-01-06T00:10:24.292Z,100513.23
2019-01-06T00:12:57.716Z,100514.98
2019-01-06T00:15:30.899Z,100516.95
2019-01-06T00:18:04.142Z,100517.68
2019-01-06T00:20:39.147Z,100514.41
2019-01-06T00:23:13.262Z,100517.36
2019-01-06T00:25:46.138Z,100514.04
2019-01-06T00:28:19.499Z,100516.25
2019-01-06T00:30:53.683Z,100520.09
2019-01-06T00:33:27.065Z,100524.52
2019-01-06T00:36:00.958Z,100525.60
2019-01-06T00:38:34.093Z,100531.38
2019-01-06T00:41:07.426Z,100525.94
2019-01-06T00:43:41.499Z,100523.16
2019-01-06T00:46:14.753Z,100518.67
2019-01-06T00:48:48.773Z,100516.32
2019-01-06T00:51:21.853Z,100512.05
2019-01-06T00:53:54.905Z,100509.00
2019-01-06T00:56:29.412Z,100510.05
2019-01-06T00:59:03.186Z,100511.86
2019-01-06T01:01:37.395Z,100508.92
2019-01-06T01:04:10.529Z,100510.73
2019-01-06T01:06:43.630Z,100512.78
2019-01-06T01:09:32.735Z,100507.19
2019-01-06T01:12:05.715Z,100510.56
2019-01-06T01:14:38.664Z,100504.74
2019-01-06T01:17:11.703Z,100509.03
2019-01-06T01:19:44.823Z,100512.95
2019-01-06T01:22:19.428Z,100505.27
2019-01-06T01:24:52.683Z,100502.22
2019-01-06T01:27:25.713Z,100493.69
2019-01-06T01:30:00.254Z,100501.28
2019-01-06T01:32:34.680Z,100509.05
2019-01-06T01:35:09.864Z,100506.27
2019-01-06T01:37:43.031Z,100508.95
2019-01-06T01:40:16.242Z,100504.89
2019-01-06T01:42:49.378Z,100508.25
2019-01-06T01:45:22.591Z,100502.00
2019-01-06T01:47:56.214Z,100503.08
2019-01-06T01:50:30.375Z,100498.13
2019-01-06T01:53:04.527Z,100498.42
2019-01-06T01:55:39.729Z,100503.59
2019-01-06T01:58:14.061Z,100507.03
2019-01-06T02:00:48.311Z,100502.65
2019-01-06T02:03:22.549Z,100495.91
2019-01-06T02:05:55.927Z,100493.81
2019-01-06T02:08:32.091Z,100491.47
2019-01-06T02:11:07.619Z,100488.00
2019-01-06T02:13:42.245Z,100477.33
2019-01-06T02:16:19.681Z,100473.53
2019-01-06T02:18:54.416Z,100466.58
2019-01-06T02:21:30.782Z,100466.42
2019-01-06T02:24:05.147Z,100460.39
2019-01-06T02:26:39.610Z,100452.34
2019-01-06T02:29:21.435Z,100452.05
2019-01-06T02:31:55.866Z,100452.45
2019-01-06T02:34:29.951Z,100457.59
2019-01-06T02:37:03.529Z,100454.58
2019-01-06T02:39:37.936Z,100454.52
2019-01-06T02:42:12.215Z,100458.23
2019-01-06T02:44:46.228Z,100455.78
2019-01-06T02:47:19.792Z,100458.63
2019-01-06T02:49:53.827Z,100449.75
2019-01-06T02:52:32.558Z,100445.92
2019-01-06T02:55:10.107Z,100438.25
2019-01-06T02:57:44.048Z,100441.52
2019-01-06T03:00:17.868Z,100441.11
2019-01-06T03:02:52.004Z,100442.97
2019-01-06T03:05:26.285Z,100443.13
2019-01-06T03:08:00.565Z,100437.41
2019-01-06T03:10:35.165Z,100431.04
2019-01-06T03:13:08.778Z,100427.92
2019-01-06T03:15:42.707Z,100426.13
2019-01-06T03:18:16.743Z,100425.38
2019-01-06T03:20:50.790Z,100419.92
2019-01-06T03:23:24.821Z,100416.78
2019-01-06T03:25:58.730Z,100415.43
2019-01-06T03:28:32.344Z,100410.66
2019-01-06T03:31:06.462Z,100402.39
2019-01-06T03:33:41.522Z,100409.86
2019-01-06T03:36:18.089Z,100410.28
2019-01-06T03:38:52.407Z,100402.77
2019-01-06T03:41:26.285Z,100403.48
2019-01-06T03:44:04.776Z,100402.82
2019-01-06T03:46:39.030Z,100395.45
2019-01-06T03:49:13.416Z,100392.48
2019-01-06T03:51:49.092Z,100383.59
2019-01-06T03:54:26.081Z,100392.58
2019-01-06T03:57:00.001Z,100381.92
2019-01-06T03:59:36.171Z,100379.53
2019-01-06T04:02:11.077Z,100380.41
2019-01-06T04:04:46.010Z,100378.49
2019-01-06T04:07:19.623Z,100371.45
2019-01-06T04:09:54.474Z,100368.42
2019-01-06T04:12:30.945Z,100367.62
2019-01-06T04:15:07.753Z,100372.77
2019-01-06T04:17:41.854Z,100361.47
2019-01-06T04:20:15.575Z,100357.62
2019-01-06T04:22:50.548Z,100355.80
2019-01-06T04:25:25.606Z,100346.03
2019-01-06T04:28:00.539Z,100352.78
2019-01-06T04:30:34.668Z,100353.58
2019-01-06T04:33:08.468Z,100349.63
2019-01-06T04:35:42.152Z,100339.67
2019-01-06T04:38:15.908Z,100336.91
2019-01-06T04:40:49.013Z,100337.80
2019-01-06T04:43:22.323Z,100334.46
2019-01-06T04:45:56.076Z,100326.03
2019-01-06T04:48:29.721Z,100336.94
2019-01-06T04:51:03.145Z,100329.08
2019-01-06T04:53:36.939Z,100331.28
2019-01-06T04:56:10.033Z,100322.28
2019-01-06T04:58:43.781Z,100315.98
2019-01-06T05:01:17.358Z,100312.75
2019-01-06T05:03:51.937Z,100318.66
2019-01-06T05:06:25.299Z,100311.44
2019-01-06T05:08:58.896Z,100312.22
2019-01-06T05:11:32.568Z,100304.72
2019-01-06T05:14:08.181Z,100309.75
2019-01-06T05:16:44.666Z,100307.16
2019-01-06T05:19:19.227Z,100306.41
2019-01-06T05:21:53.517Z,100306.73
2019-01-06T05:24:26.715Z,100300.24
2019-01-06T05:27:00.147Z,100302.13
2019-01-06T05:29:34.476Z,100293.22
2019-01-06T05:32:09.232Z,100292.73
2019-01-06T05:34:43.995Z,100286.92
2019-01-06T05:37:17.040Z,100286.65
2019-01-06T05:39:50.500Z,100287.22
2019-01-06T05:42:23.597Z,100281.00
2019-01-06T05:44:57.252Z,100280.89
2019-01-06T05:47:30.682Z,100283.67
2019-01-06T05:50:05.528Z,100280.89
2019-01-06T05:52:38.649Z,100277.66
2019-01-06T05:55:12.737Z,100279.06
2019-01-06T05:57:46.541Z,100275.77
2019-01-06T06:00:19.917Z,100273.53
2019-01-06T06:02:52.968Z,100281.23
2019-01-06T06:05:26.620Z,100278.38
2019-01-06T06:08:00.019Z,100276.77
2019-01-06T06:10:41.389Z,100276.77
2019-01-06T06:13:14.663Z,100275.03
2019-01-06T06:15:48.128Z,100275.77
2019-01-06T06:18:22.571Z,100277.26
2019-01-06T06:20:55.966Z,100276.05
2019-01-06T06:23:30.918Z,100266.09
2019-01-06T06:26:06.420Z,100274.92
2019-01-06T06:28:41.876Z,100278.02
2019-01-06T06:31:15.289Z,100281.39
2019-01-06T06:33:48.554Z,100280.47
2019-01-06T06:36:21.897Z,100284.23
2019-01-06T06:38:55.910Z,100286.91
2019-01-06T06:41:29.360Z,100282.34
2019-01-06T06:44:03.580Z,100283.83
2019-01-06T06:46:38.811Z,100278.17
2019-01-06T06:49:13.799Z,100280.01
2019-01-06T06:51:49.301Z,100284.64
2019-01-06T06:54:23.286Z,100286.59
2019-01-06T06:57:36.263Z,100282.28
2019-01-06T07:00:37.741Z,100286.20
2019-01-06T07:03:29.267Z,100283.83
2019-01-06T07:06:03.469Z,100282.90
2019-01-06T07:08:37.914Z,100282.50
2019-01-06T07:11:13.928Z,100282.84
2019-01-06T07:13:49.664Z,100275.83
2019-01-06T07:17:15.465Z,100279.17
2019-01-06T07:19:48.995Z,100286.28
2019-01-06T07:22:42.113Z,100281.87
2019-01-06T07:25:15.664Z,100277.53
2019-01-06T07:27:49.724Z,100281.58
2019-01-06T07:30:24.829Z,100285.72
2019-01-06T07:32:58.273Z,100285.53
2019-01-06T07:35:32.072Z,100281.37
2019-01-06T07:38:06.999Z,100279.55
2019-01-06T07:40:41.157Z,100283.93
2019-01-06T07:43:15.611Z,100279.59
2019-01-06T07:45:49.506Z,100283.55
2019-01-06T07:48:23.544Z,100279.13
2019-01-06T07:50:57.286Z,100277.78
2019-01-06T07:53:31.371Z,100282.39
2019-01-06T07:56:04.786Z,100286.00
2019-01-06T07:58:37.763Z,100272.51
2019-01-06T08:01:11.544Z,100275.97
2019-01-06T08:03:45.977Z,100273.09
2019-01-06T08:06:19.470Z,100274.25
2019-01-06T08:08:53.263Z,100274.78
2019-01-06T08:11:27.874Z,100276.55
2019-01-06T08:14:01.205Z,100275.14
2019-01-06T08:16:34.316Z,100272.00
2019-01-06T08:19:07.559Z,100277.46
2019-01-06T08:21:46.150Z,100280.30
2019-01-06T08:24:21.004Z,100283.98
2019-01-06T08:26:59.906Z,100281.20
2019-01-06T08:29:36.438Z,100284.73
2019-01-06T08:32:14.679Z,100285.66
2019-01-06T08:34:49.211Z,100294.12
2019-01-06T08:37:25.082Z,100287.60
2019-01-06T08:40:00.015Z,100284.83
2019-01-06T08:42:35.564Z,100282.61
2019-01-06T08:45:11.185Z,100284.77
2019-01-06T08:47:59.404Z,100283.13
2019-01-06T08:50:37.780Z,100286.37
2019-01-06T08:53:17.624Z,100289.11
2019-01-06T08:55:53.837Z,100287.16
2019-01-06T08:58:30.067Z,100284.10
2019-01-06T09:01:04.755Z,100284.25
2019-01-06T09:03:40.573Z,100286.64
2019-01-06T09:06:16.731Z,100280.28
2019-01-06T09:09:00.541Z,100280.84
2019-01-06T09:11:35.402Z,100291.79
2019-01-06T09:14:10.247Z,100292.54
2019-01-06T09:16:48.097Z,100295.26
2019-01-06T09:19:23.570Z,100291.22
2019-01-06T09:21:58.811Z,100293.36
2019-01-06T09:24:33.514Z,100293.62
2019-01-06T09:27:08.500Z,100296.55
2019-01-06T09:29:42.878Z,100299.08
2019-01-06T09:32:17.206Z,100299.69
2019-01-06T09:34:51.884Z,100293.74
2019-01-06T09:37:25.936Z,100296.75
2019-01-06T09:39:59.987Z,100289.90
2019-01-06T09:42:34.416Z,100295.27
2019-01-06T09:45:08.636Z,100301.45
2019-01-06T09:47:42.626Z,100295.45
2019-01-06T09:50:17.814Z,100290.34
2019-01-06T09:52:52.680Z,100293.64
2019-01-06T09:55:26.174Z,100290.45
2019-01-06T09:58:00.322Z,100288.23
2019-01-06T10:00:34.995Z,100289.73
2019-01-06T10:03:08.947Z,100293.00
2019-01-06T10:05:43.693Z,100298.57
2019-01-06T10:08:24.156Z,100302.30
2019-01-06T10:10:58.803Z,100296.64
2019-01-06T10:13:34.601Z,100299.55
2019-01-06T10:16:09.189Z,100301.75
2019-01-06T10:18:47.206Z,100301.89
2019-01-06T10:21:22.061Z,100311.16
2019-01-06T10:24:02.166Z,100310.30
2019-01-06T10:26:36.688Z,100309.46
2019-01-06T10:29:11.155Z,100304.14
2019-01-06T10:31:47.384Z,100301.58
2019-01-06T10:34:21.439Z,100297.66
2019-01-06T10:36:57.235Z,100305.42
2019-01-06T10:39:34.875Z,100298.83
2019-01-06T10:42:09.299Z,100293.33
2019-01-06T10:44:43.568Z,100304.72
2019-01-06T10:47:19.420Z,100302.72
2019-01-06T10:49:56.089Z,100300.33
2019-01-06T10:52:31.127Z,100297.55
2019-01-06T10:55:05.383Z,100301.39
2019-01-06T10:57:41.752Z,100297.48
2019-01-06T11:00:17.580Z,100290.02
2019-01-06T11:02:53.298Z,100295.03
2019-01-06T11:05:29.827Z,100295.56
2019-01-06T11:08:05.922Z,100298.64
2019-01-06T11:10:42.472Z,100294.91
2019-01-06T11:13:22.732Z,100293.34
2019-01-06T11:16:00.122Z,100295.32
2019-01-06T11:18:36.506Z,100294.47
2019-01-06T11:21:11.256Z,100285.02
2019-01-06T11:23:49.029Z,100284.81
2019-01-06T11:26:24.813Z,100288.44
2019-01-06T11:29:00.841Z,100290.67
2019-01-06T11:31:35.338Z,100283.90
2019-01-06T11:34:10.943Z,100281.70
2019-01-06T11:36:47.337Z,100287.28
2019-01-06T11:39:23.230Z,100288.08
2019-01-06T11:41:58.901Z,100285.12
2019-01-06T11:44:36.952Z,100284.47
2019-01-06T11:47:11.429Z,100288.09
2019-01-06T11:49:45.698Z,100283.03
2019-01-06T11:52:19.890Z,100284.23
2019-01-06T11:54:55.378Z,100287.16
2019-01-06T11:57:29.982Z,100282.31
2019-01-06T12:00:06.167Z,100275.98
2019-01-06T12:02:40.780Z,100286.16
2019-01-06T12:05:15.980Z,100289.00
2019-01-06T12:07:51.680Z,100285.03
2019-01-06T12:10:37.880Z,100284.67
2019-01-06T12:13:13.144Z,100287.20
2019-01-06T12:15:51.634Z,100283.27
2019-01-06T12:18:26.323Z,100281.67
2019-01-06T12:21:00.755Z,100284.11
2019-01-06T12:23:35.034Z,100283.58
2019-01-06T12:26:09.849Z,100282.82
2019-01-06T12:28:45.742Z,100282.94
2019-01-06T12:31:21.810Z,100293.50
2019-01-06T12:33:56.448Z,100286.56
2019-01-06T12:36:30.987Z,100287.56
2019-01-06T12:39:05.380Z,100287.95
2019-01-06T12:42:00.490Z,100282.92
2019-01-06T12:44:34.769Z,100281.23
2019-01-06T12:47:10.211Z,100276.31
2019-01-06T12:49:46.537Z,100272.45
2019-01-06T12:52:21.382Z,100272.45
2019-01-06T12:54:56.148Z,100272.11
2019-01-06T12:57:30.746Z,100271.48
2019-01-06T13:00:05.512Z,100269.83
2019-01-06T13:02:39.251Z,100271.64
2019-01-06T13:05:13.632Z,100277.68
2019-01-06T13:07:48.741Z,100272.78
2019-01-06T13:10:25.263Z,100272.38
2019-01-06T13:13:00.186Z,100268.67
2019-01-06T13:15:34.941Z,100275.41
2019-01-06T13:18:09.623Z,100278.53
2019-01-06T13:20:44.584Z,100275.88
2019-01-06T13:23:20.651Z,100272.45
2019-01-06T13:25:55.709Z,100271.61
2019-01-06T13:28:30.478Z,100272.48
2019-01-06T13:31:07.744Z,100266.23
2019-01-06T13:33:42.393Z,100268.77
2019-01-06T13:36:17.372Z,100271.14
2019-01-06T13:38:53.333Z,100277.52
2019-01-06T13:41:31.437Z,100272.36
2019-01-06T13:44:06.559Z,100276.93
2019-01-06T13:46:40.088Z,100272.38
2019-01-06T13:49:13.619Z,100271.29
2019-01-06T13:51:47.329Z,100262.44
2019-01-06T13:54:21.382Z,100257.97
2019-01-06T13:56:55.588Z,100263.73
2019-01-06T13:59:29.275Z,100258.82
2019-01-06T14:02:04.356Z,100257.98
2019-01-06T14:04:37.983Z,100259.04
2019-01-06T14:07:14.832Z,100257.25
2019-01-06T14:09:51.865Z,100254.98
2019-01-06T14:12:27.117Z,100254.37
2019-01-06T14:15:01.888Z,100256.20
2019-01-06T14:17:37.339Z,100256.66
2019-01-06T14:20:16.663Z,100262.28
2019-01-06T14:22:46.292Z,100258.48
2019-01-06T14:25:21.947Z,100255.47
2019-01-06T14:27:55.522Z,100251.99
2019-01-06T14:30:30.165Z,100248.88
2019-01-06T14:33:04.024Z,100252.61
2019-01-06T14:35:39.212Z,100249.98
2019-01-06T14:38:13.794Z,100249.95
2019-01-06T14:40:47.352Z,100249.36
2019-01-06T14:43:20.731Z,100252.97
2019-01-06T14:45:56.150Z,100248.38
2019-01-06T14:48:32.112Z,100244.94
2019-01-06T14:51:06.096Z,100243.48
2019-01-06T14:53:39.510Z,100245.86
2019-01-06T14:56:12.673Z,100239.53
2019-01-06T14:58:46.649Z,100243.36
2019-01-06T15:01:20.261Z,100243.84
2019-01-06T15:03:54.107Z,100238.58
2019-01-06T15:06:27.948Z,100240.26
2019-01-06T15:09:01.385Z,100248.64
2019-01-06T15:11:34.945Z,100244.69
2019-01-06T15:14:08.776Z,100238.58
2019-01-06T15:16:42.174Z,100239.16
2019-01-06T15:19:15.870Z,100236.16
2019-01-06T15:21:49.524Z,100229.94
2019-01-06T15:24:24.252Z,100232.32
2019-01-06T15:26:58.769Z,100230.05
2019-01-06T15:29:32.283Z,100222.98
2019-01-06T15:32:05.714Z,100230.05
2019-01-06T15:34:39.098Z,100224.05
2019-01-06T15:37:13.048Z,100221.89
2019-01-06T15:39:46.515Z,100220.24
2019-01-06T15:42:20.623Z,100219.52
2019-01-06T15:44:53.908Z,100218.45
2019-01-06T15:47:27.255Z,100220.58
2019-01-06T15:50:02.680Z,100214.83
2019-01-06T15:52:36.063Z,100213.03
2019-01-06T15:55:09.230Z,100222.36
2019-01-06T15:57:42.565Z,100212.19
2019-01-06T16:00:16.914Z,100211.47
2019-01-06T16:02:49.802Z,100210.63
2019-01-06T16:05:23.019Z,100204.98
2019-01-06T16:07:57.241Z,100202.50
2019-01-06T16:10:30.108Z,100211.61
2019-01-06T16:13:03.206Z,100207.88
2019-01-06T16:15:36.416Z,100210.52
2019-01-06T16:18:11.796Z,100204.29
2019-01-06T16:20:43.681Z,100215.41
2019-01-06T16:23:16.652Z,100215.78
2019-01-06T16:25:49.765Z,100215.31
2019-01-06T16:28:23.094Z,100218.30
2019-01-06T16:30:56.089Z,100215.56
2019-01-06T16:33:30.574Z,100214.83
2019-01-06T16:36:03.675Z,100223.10
2019-01-06T16:38:36.710Z,100220.72
2019-01-06T16:41:09.813Z,100217.72
2019-01-06T16:43:43.035Z,100216.77
2019-01-06T16:46:16.101Z,100214.72
2019-01-06T16:48:49.320Z,100213.88
2019-01-06T16:51:23.585Z,100216.25
2019-01-06T16:53:56.882Z,100207.98
2019-01-06T16:56:29.975Z,100212.39
2019-01-06T16:59:03.186Z,100218.36
2019-01-06T17:01:36.065Z,100219.41
2019-01-06T17:04:09.062Z,100213.11
2019-01-06T17:06:42.139Z,100218.72
2019-01-06T17:09:15.079Z,100215.92
2019-01-06T17:11:48.051Z,100212.47
2019-01-06T17:14:21.069Z,100223.04
2019-01-06T17:16:53.946Z,100222.20
2019-01-06T17:19:27.211Z,100223.84
2019-01-06T17:22:01.102Z,100217.64
2019-01-06T17:24:34.224Z,100220.98
2019-01-06T17:27:07.338Z,100214.53
2019-01-06T17:29:40.415Z,100218.20
2019-01-06T17:32:13.489Z,100221.68
2019-01-06T17:34:46.646Z,100222.58
2019-01-06T17:37:20.705Z,100226.24
2019-01-06T17:39:54.060Z,100228.17
2019-01-06T17:42:27.050Z,100234.76
2019-01-06T17:45:00.189Z,100233.66
2019-01-06T17:47:33.119Z,100233.92
2019-01-06T17:50:06.640Z,100230.84
2019-01-06T17:52:39.682Z,100236.26
2019-01-06T17:55:13.910Z,100236.26
2019-01-06T17:57:46.840Z,100234.47
2019-01-06T18:00:19.969Z,100232.91
2019-01-06T18:02:52.815Z,100235.16
2019-01-06T18:05:26.131Z,100237.53
2019-01-06T18:07:59.276Z,100242.30
2019-01-06T18:10:32.382Z,100231.20
2019-01-06T18:13:09.155Z,100238.62
2019-01-06T18:15:42.155Z,100235.13
2019-01-06T18:18:15.208Z,100235.13
2019-01-06T18:20:48.526Z,100226.61
2019-01-06T18:23:26.063Z,100221.94
2019-01-06T18:25:59.051Z,100223.14
2019-01-06T18:28:32.065Z,100219.10
2019-01-06T18:31:05.460Z,100216.45
2019-01-06T18:33:58.180Z,100210.50
2019-01-06T18:36:31.213Z,100211.68
2019-01-06T18:39:04.347Z,100209.30
2019-01-06T18:41:37.358Z,100209.87
2019-01-06T18:44:10.460Z,100217.66
2019-01-06T18:46:45.064Z,100210.61
2019-01-06T18:49:18.294Z,100209.67
2019-01-06T18:51:51.482Z,100215.41
2019-01-06T18:54:24.525Z,100213.61
2019-01-06T18:56:57.859Z,100208.09
2019-01-06T18:59:30.826Z,100219.55
2019-01-06T19:02:03.774Z,100218.62
2019-01-06T19:04:36.827Z,100218.52
2019-01-06T19:07:10.176Z,100216.83
2019-01-06T19:09:43.329Z,100216.82
2019-01-06T19:12:16.548Z,100215.13
2019-01-06T19:14:50.392Z,100204.35
2019-01-06T19:17:23.230Z,100205.56
2019-01-06T19:19:58.534Z,100197.77
2019-01-06T19:22:30.474Z,100202.80
2019-01-06T19:25:03.563Z,100193.72
2019-01-06T19:27:36.436Z,100196.36
2019-01-06T19:30:12.122Z,100189.65
2019-01-06T19:32:45.265Z,100183.56
2019-01-06T19:35:18.229Z,100189.63
2019-01-06T19:37:51.193Z,100186.71
2019-01-06T19:40:24.275Z,100185.86
2019-01-06T19:42:57.360Z,100178.05
2019-01-06T19:45:30.325Z,100177.84
2019-01-06T19:48:03.572Z,100174.16
2019-01-06T19:50:36.471Z,100175.28
2019-01-06T19:53:09.485Z,100180.75
2019-01-06T19:55:43.541Z,100170.23
2019-01-06T19:58:17.642Z,100165.98
2019-01-06T20:00:50.683Z,100161.70
2019-01-06T20:03:23.760Z,100164.98
2019-01-06T20:05:56.682Z,100167.60
2019-01-06T20:08:31.116Z,100166.02
2019-01-06T20:11:05.144Z,100159.27
2019-01-06T20:13:38.242Z,100159.07
2019-01-06T20:16:11.519Z,100153.32
2019-01-06T20:18:44.649Z,100157.54
2019-01-06T20:21:17.652Z,100159.50
2019-01-06T20:23:58.508Z,100150.02
2019-01-06T20:26:33.205Z,100144.02
2019-01-06T20:29:08.537Z,100142.14
2019-01-06T20:31:41.495Z,100139.25
2019-01-06T20:34:14.643Z,100134.56
2019-01-06T20:36:47.739Z,100136.13
2019-01-06T20:39:20.703Z,100134.19
2019-01-06T20:41:58.685Z,100134.90
2019-01-06T20:44:28.284Z,100134.90
2019-01-06T20:47:01.337Z,100127.38
2019-01-06T20:49:34.461Z,100133.98
2019-01-06T20:52:07.520Z,100136.80
2019-01-06T20:54:40.489Z,100136.48
2019-01-06T20:57:13.531Z,100130.76
2019-01-06T20:59:46.575Z,100122.88
2019-01-06T21:02:19.627Z,100121.64
2019-01-06T21:04:52.696Z,100126.92
2019-01-06T21:07:26.889Z,100117.71
2019-01-06T21:09:59.840Z,100113.51
2019-01-06T21:12:32.783Z,100114.50
2019-01-06T21:15:05.868Z,100115.92
2019-01-06T21:17:38.907Z,100106.14
2019-01-06T21:20:11.987Z,100107.09
2019-01-06T21:22:45.426Z,100105.56
2019-01-06T21:25:18.531Z,100108.30
2019-01-06T21:27:51.625Z,100105.66
2019-01-06T21:30:24.599Z,100103.88
2019-01-06T21:32:58.640Z,100095.83
2019-01-06T21:35:31.581Z,100098.58
2019-01-06T21:38:04.532Z,100097.77
2019-01-06T21:40:37.448Z,100104.94
2019-01-06T21:43:10.691Z,100093.09
2019-01-06T21:45:43.639Z,100089.73
2019-01-06T21:48:16.481Z,100087.61
2019-01-06T21:50:49.478Z,100091.16
2019-01-06T21:53:22.568Z,100085.56
2019-01-06T21:55:55.548Z,100089.37
2019-01-06T21:58:28.491Z,100084.46
2019-01-06T22:01:01.508Z,100079.80
2019-01-06T22:03:34.528Z,100083.64
2019-01-06T22:06:07.477Z,100076.59
2019-01-06T22:08:40.612Z,100081.61
2019-01-06T22:11:14.883Z,100072.25
2019-01-06T22:13:47.986Z,100078.97
2019-01-06T22:16:22.334Z,100073.34
2019-01-06T22:18:55.167Z,100076.56
2019-01-06T22:21:28.690Z,100066.88
2019-01-06T22:24:01.660Z,100064.97
2019-01-06T22:26:35.810Z,100072.14
2019-01-06T22:29:08.531Z,100066.28
2019-01-06T22:31:42.545Z,100060.34
2019-01-06T22:34:15.566Z,100058.03
2019-01-06T22:36:48.419Z,100055.73
2019-01-06T22:39:21.465Z,100055.84
2019-01-06T22:41:54.211Z,100053.40
2019-01-06T22:44:27.318Z,100056.05
2019-01-06T22:47:00.400Z,100061.76
2019-01-06T22:49:33.366Z,100056.67
2019-01-06T22:52:06.275Z,100049.47
2019-01-06T22:54:39.252Z,100049.94
2019-01-06T22:57:12.374Z,100039.51
2019-01-06T22:59:45.338Z,100052.33
2019-01-06T23:02:18.412Z,100046.55
2019-01-06T23:04:51.403Z,100051.03
2019-01-06T23:07:24.243Z,100055.94
2019-01-06T23:09:57.269Z,100058.72
2019-01-06T23:12:30.182Z,100056.32
2019-01-06T23:15:03.144Z,100059.80
2019-01-06T23:17:36.120Z,100062.88
2019-01-06T23:23:43.608Z,100057.31
2019-01-06T23:26:15.955Z,100054.52
2019-01-06T23:28:48.901Z,100051.89
2019-01-06T23:31:22.551Z,100049.59
2019-01-06T23:33:55.606Z,100044.39
2019-01-06T23:36:30.039Z,100062.33
2019-01-06T23:39:02.983Z,100044.74
2019-01-06T23:41:35.945Z,100043.18
2019-01-06T23:44:09.159Z,100044.67
2019-01-06T23:46:42.697Z,100042.30
2019-01-06T23:49:15.788Z,100045.98
2019-01-06T23:51:48.742Z,100046.51
2019-01-06T23:54:21.768Z,100045.21
2019-01-06T23:56:54.790Z,100044.73
2019-01-06T23:59:27.774Z,100056.94
